Stamford, TX (79553)

3:20 AM CDT on July 28, 2014 (GMT -0500)
Stamford East (KTXSTAMF5) Elev 1608 ft | 32.94 °N, 99.78 °W | Change Station

Current weather conditions updated 4 minutes ago

Mostly Cloudy
Mostly Cloudy
81.9 °F
Feels Like 83 °F
N
3.7
Wind Variable Wind from South

Today is forecast to be Much Cooler than yesterday.

Today
High -- | Low -- °F
--% Chance of Precip.
Yesterday
High -- | Low -- °F
Precip. -- in
6:49 AM 8:40 PM
New Moon, 2% visible
Pressure 29.91 in
Visibility 10.0 miles
Clouds Mostly Cloudy 11000 ft
Heat Index 83 °F
Dew Point 62 °F
Humidity 52%
Rainfall 0.00 in
Snow Depth Not available.
UV 0 out of 12
Pollen 6.40 out of 12
Air Quality Not available.
Flu Activity Not available.
METAR KDYS 280758Z AUTO 20002KT 10SM BKN110 28/17 A3007 RMK AO2 SLP127 T02790171 $

More Conditions Fewer Conditions

Pressure 29.91 in
Visibility 10.0 miles
Clouds Mostly Cloudy 11000 ft
Heat Index 83 °F
Dew Point 62 °F
Humidity 52%
Rainfall 0.00 in
Snow Depth Not available.
UV 0 out of 12
Pollen 6.40 out of 12
Air Quality Not available.
Flu Activity Not available.
METAR KDYS 280758Z AUTO 20002KT 10SM BKN110 28/17 A3007 RMK AO2 SLP127 T02790171 $

More Conditions Fewer Conditions

10-Day Weather Forecast

Almanac

Astronomy

Jul. 28, 2014 Rise Set
Actual Time 6:49 AM CDT 8:40 PM CDT
Civil Twilight 6:22 AM CDT 9:08 PM CDT
Nautical Twilight 5:49 AM CDT 9:40 PM CDT
Astronomical Twilight 5:14 AM CDT 10:15 PM CDT
Moon 8:24 AM CDT 9:33 PM CDT
Length of Visible Light 14h 45m
Length of Day
13h 50m
Tomorrow will be 1m 26s shorter.
New Moon, 2% of the Moon is Illuminated
Today
New Moon
Aug 3
First Quarter
Aug 10
Full
Aug 17
Last Quarter
Aug 25
New

Today's Extremes

State Highs State Lows

Community

WunderPhotos

Upload Photos

1,738,294 photos uploaded!

Nearby

Snow Depth

Station Depth Elevation
No new snow has been reported.

Earthquake Activity

City Distance Mag. Time & Date
No recent earthquake activity has been reported nearby.
Minimum magnitude displayed is 2.5.

Coastal Water Temperatures

Place Temperature
No Stations Reporting

Nearby Weather Stations

Station Location Temp. Heat Index Dew Point Humidity Wind Precip. Elev Updated Type
Stamford East, Stamford, TX 81.9 °F 83 °F 62 °F 52% South  at  3.7 mph - / hr 1608 ft 3:15 AM CDT Normal
WT_Meso Haskell 1NW (Haskell County), T, Haskell, TX 83 °F 84 °F 60 °F 48% SSE  at  5 mph 0.00 in / hr 1604 ft 2:25 AM CDT MADIS
Hawley,Tx Weather, Hawley, TX 78.1 °F 80 °F 67 °F 69% South  at  1.0 mph 0.00 in / hr 1739 ft 3:20 AM CDT Rapid Fire

Show More Stations Show Fewer Stations